sensor_id;sensor_type;location;lat;lon;timestamp;temperature;humidity
16781;DHT22;8507;50.056;8.248;2022-09-25T00:01:14;13.90;99.90
16781;DHT22;8507;50.056;8.248;2022-09-25T00:03:39;14.00;99.90
16781;DHT22;8507;50.056;8.248;2022-09-25T00:06:08;14.10;99.90
16781;DHT22;8507;50.056;8.248;2022-09-25T00:08:35;14.10;99.90
16781;DHT22;8507;50.056;8.248;2022-09-25T00:11:06;14.00;99.90
16781;DHT22;8507;50.056;8.248;2022-09-25T00:13:32;13.80;99.90
16781;DHT22;8507;50.056;8.248;2022-09-25T00:15:58;13.80;99.90
16781;DHT22;8507;50.056;8.248;2022-09-25T00:18:25;13.90;99.90
16781;DHT22;8507;50.056;8.248;2022-09-25T00:21:12;14.00;99.90
16781;DHT22;8507;50.056;8.248;2022-09-25T00:23:39;14.20;99.90
16781;DHT22;8507;50.056;8.248;2022-09-25T00:26:06;14.20;99.90
16781;DHT22;8507;50.056;8.248;2022-09-25T00:28:33;14.10;99.90
16781;DHT22;8507;50.056;8.248;2022-09-25T00:31:01;14.10;99.90
16781;DHT22;8507;50.056;8.248;2022-09-25T00:33:26;14.10;99.90
16781;DHT22;8507;50.056;8.248;2022-09-25T00:35:53;14.20;99.90
16781;DHT22;8507;50.056;8.248;2022-09-25T00:38:18;14.20;99.90
16781;DHT22;8507;50.056;8.248;2022-09-25T00:40:44;14.30;99.90
16781;DHT22;8507;50.056;8.248;2022-09-25T00:43:37;14.30;99.90
16781;DHT22;8507;50.056;8.248;2022-09-25T00:46:17;14.30;99.90
16781;DHT22;8507;50.056;8.248;2022-09-25T00:48:49;14.30;99.90
16781;DHT22;8507;50.056;8.248;2022-09-25T00:51:18;14.30;99.90
16781;DHT22;8507;50.056;8.248;2022-09-25T00:53:45;14.30;99.90
16781;DHT22;8507;50.056;8.248;2022-09-25T00:56:12;14.30;99.90
16781;DHT22;8507;50.056;8.248;2022-09-25T00:58:39;14.30;99.90
16781;DHT22;8507;50.056;8.248;2022-09-25T01:01:06;14.40;99.90
16781;DHT22;8507;50.056;8.248;2022-09-25T01:03:33;14.40;99.90
16781;DHT22;8507;50.056;8.248;2022-09-25T01:05:59;14.40;99.90
16781;DHT22;8507;50.056;8.248;2022-09-25T01:08:29;14.40;99.90
16781;DHT22;8507;50.056;8.248;2022-09-25T01:10:55;14.50;99.90
16781;DHT22;8507;50.056;8.248;2022-09-25T01:13:21;14.50;99.90
16781;DHT22;8507;50.056;8.248;2022-09-25T01:18:52;14.50;99.90
16781;DHT22;8507;50.056;8.248;2022-09-25T01:21:36;14.50;99.90
16781;DHT22;8507;50.056;8.248;2022-09-25T01:24:29;14.50;99.90
16781;DHT22;8507;50.056;8.248;2022-09-25T01:27:28;14.50;99.90
16781;DHT22;8507;50.056;8.248;2022-09-25T01:30:10;14.50;99.90
16781;DHT22;8507;50.056;8.248;2022-09-25T01:41:14;14.40;99.90
16781;DHT22;8507;50.056;8.248;2022-09-25T01:44:14;14.40;99.90
16781;DHT22;8507;50.056;8.248;2022-09-25T01:46:52;14.40;99.90
16781;DHT22;8507;50.056;8.248;2022-09-25T01:49:23;14.40;99.90
16781;DHT22;8507;50.056;8.248;2022-09-25T01:51:52;14.40;99.90
16781;DHT22;8507;50.056;8.248;2022-09-25T01:54:33;14.40;99.90
16781;DHT22;8507;50.056;8.248;2022-09-25T01:57:08;14.40;99.90
16781;DHT22;8507;50.056;8.248;2022-09-25T01:59:46;14.40;99.90
16781;DHT22;8507;50.056;8.248;2022-09-25T02:02:17;14.30;99.90
16781;DHT22;8507;50.056;8.248;2022-09-25T02:05:09;14.30;99.90
16781;DHT22;8507;50.056;8.248;2022-09-25T02:07:47;14.20;99.90
16781;DHT22;8507;50.056;8.248;2022-09-25T02:10:19;14.10;99.90
16781;DHT22;8507;50.056;8.248;2022-09-25T02:12:52;14.20;99.90
16781;DHT22;8507;50.056;8.248;2022-09-25T02:15:28;14.30;99.90
16781;DHT22;8507;50.056;8.248;2022-09-25T02:17:59;14.40;99.90
16781;DHT22;8507;50.056;8.248;2022-09-25T02:21:01;14.40;99.90
16781;DHT22;8507;50.056;8.248;2022-09-25T02:23:57;14.50;99.90
16781;DHT22;8507;50.056;8.248;2022-09-25T02:26:29;14.40;99.90
16781;DHT22;8507;50.056;8.248;2022-09-25T02:28:56;14.40;99.90
16781;DHT22;8507;50.056;8.248;2022-09-25T02:31:27;14.50;99.90
16781;DHT22;8507;50.056;8.248;2022-09-25T02:33:56;14.50;99.90
16781;DHT22;8507;50.056;8.248;2022-09-25T02:36:21;14.40;99.90
16781;DHT22;8507;50.056;8.248;2022-09-25T02:38:51;14.40;99.90
16781;DHT22;8507;50.056;8.248;2022-09-25T02:41:28;14.40;99.90
16781;DHT22;8507;50.056;8.248;2022-09-25T02:44:18;14.20;99.90
16781;DHT22;8507;50.056;8.248;2022-09-25T02:47:54;14.20;99.90
16781;DHT22;8507;50.056;8.248;2022-09-25T02:50:01;14.30;99.90
16781;DHT22;8507;50.056;8.248;2022-09-25T02:55:14;14.30;99.90
16781;DHT22;8507;50.056;8.248;2022-09-25T02:58:02;14.30;99.90
16781;DHT22;8507;50.056;8.248;2022-09-25T03:00:29;14.30;99.90
16781;DHT22;8507;50.056;8.248;2022-09-25T03:02:57;14.30;99.90
16781;DHT22;8507;50.056;8.248;2022-09-25T03:05:24;14.30;99.90
16781;DHT22;8507;50.056;8.248;2022-09-25T03:07:52;14.30;99.90
16781;DHT22;8507;50.056;8.248;2022-09-25T03:10:37;14.30;99.90
16781;DHT22;8507;50.056;8.248;2022-09-25T03:13:23;14.30;99.90
16781;DHT22;8507;50.056;8.248;2022-09-25T03:16:15;14.20;99.90
16781;DHT22;8507;50.056;8.248;2022-09-25T03:18:43;14.10;99.90
16781;DHT22;8507;50.056;8.248;2022-09-25T03:21:10;13.90;99.90
16781;DHT22;8507;50.056;8.248;2022-09-25T03:23:36;13.70;99.90
16781;DHT22;8507;50.056;8.248;2022-09-25T03:26:01;13.40;99.90
16781;DHT22;8507;50.056;8.248;2022-09-25T03:28:28;13.40;99.90
16781;DHT22;8507;50.056;8.248;2022-09-25T03:30:59;13.50;99.90
16781;DHT22;8507;50.056;8.248;2022-09-25T03:33:27;13.60;99.90
16781;DHT22;8507;50.056;8.248;2022-09-25T03:36:08;13.50;99.90
16781;DHT22;8507;50.056;8.248;2022-09-25T03:38:35;13.50;99.90
16781;DHT22;8507;50.056;8.248;2022-09-25T03:41:01;13.70;99.90
16781;DHT22;8507;50.056;8.248;2022-09-25T03:43:27;13.80;99.90
16781;DHT22;8507;50.056;8.248;2022-09-25T03:45:53;13.70;99.90
16781;DHT22;8507;50.056;8.248;2022-09-25T03:48:19;13.60;99.90
16781;DHT22;8507;50.056;8.248;2022-09-25T03:50:45;13.60;99.90
16781;DHT22;8507;50.056;8.248;2022-09-25T03:53:15;13.70;99.90
16781;DHT22;8507;50.056;8.248;2022-09-25T03:55:40;13.80;99.90
16781;DHT22;8507;50.056;8.248;2022-09-25T03:58:05;13.80;99.90
16781;DHT22;8507;50.056;8.248;2022-09-25T04:00:31;13.90;99.90
16781;DHT22;8507;50.056;8.248;2022-09-25T04:02:56;14.00;99.90
16781;DHT22;8507;50.056;8.248;2022-09-25T04:05:23;14.10;99.90
16781;DHT22;8507;50.056;8.248;2022-09-25T04:07:49;14.00;99.90
16781;DHT22;8507;50.056;8.248;2022-09-25T04:10:15;13.90;99.90
16781;DHT22;8507;50.056;8.248;2022-09-25T04:12:40;14.00;99.90
16781;DHT22;8507;50.056;8.248;2022-09-25T04:15:08;14.00;99.90
16781;DHT22;8507;50.056;8.248;2022-09-25T04:17:33;14.10;99.90
16781;DHT22;8507;50.056;8.248;2022-09-25T04:20:00;14.10;99.90
16781;DHT22;8507;50.056;8.248;2022-09-25T04:22:25;14.10;99.90
16781;DHT22;8507;50.056;8.248;2022-09-25T04:24:51;14.10;99.90
16781;DHT22;8507;50.056;8.248;2022-09-25T04:27:20;14.20;99.90
16781;DHT22;8507;50.056;8.248;2022-09-25T04:29:46;14.10;99.90
16781;DHT22;8507;50.056;8.248;2022-09-25T04:32:13;14.10;99.90
16781;DHT22;8507;50.056;8.248;2022-09-25T04:34:57;14.20;99.90
16781;DHT22;8507;50.056;8.248;2022-09-25T04:37:23;14.20;99.90
16781;DHT22;8507;50.056;8.248;2022-09-25T04:39:54;14.20;99.90
16781;DHT22;8507;50.056;8.248;2022-09-25T04:42:20;14.20;99.90
16781;DHT22;8507;50.056;8.248;2022-09-25T04:44:50;14.20;99.90
16781;DHT22;8507;50.056;8.248;2022-09-25T04:47:16;14.20;99.90
16781;DHT22;8507;50.056;8.248;2022-09-25T04:49:42;14.20;99.90
16781;DHT22;8507;50.056;8.248;2022-09-25T04:52:07;14.20;99.90
16781;DHT22;8507;50.056;8.248;2022-09-25T04:54:33;14.20;99.90
16781;DHT22;8507;50.056;8.248;2022-09-25T04:56:58;14.10;99.90
16781;DHT22;8507;50.056;8.248;2022-09-25T04:59:24;14.10;99.90
16781;DHT22;8507;50.056;8.248;2022-09-25T05:01:49;14.10;99.90
16781;DHT22;8507;50.056;8.248;2022-09-25T05:04:15;14.10;99.90
16781;DHT22;8507;50.056;8.248;2022-09-25T05:06:41;14.10;99.90
16781;DHT22;8507;50.056;8.248;2022-09-25T05:09:06;14.20;99.90
16781;DHT22;8507;50.056;8.248;2022-09-25T05:11:32;14.10;99.90
16781;DHT22;8507;50.056;8.248;2022-09-25T05:13:57;13.90;99.90
16781;DHT22;8507;50.056;8.248;2022-09-25T05:16:23;13.90;99.90
16781;DHT22;8507;50.056;8.248;2022-09-25T05:18:48;14.00;99.90
16781;DHT22;8507;50.056;8.248;2022-09-25T05:21:14;14.00;99.90
16781;DHT22;8507;50.056;8.248;2022-09-25T05:23:39;14.00;99.90
16781;DHT22;8507;50.056;8.248;2022-09-25T05:26:05;14.00;99.90
16781;DHT22;8507;50.056;8.248;2022-09-25T05:28:31;14.10;99.90
16781;DHT22;8507;50.056;8.248;2022-09-25T05:31:01;14.10;99.90
16781;DHT22;8507;50.056;8.248;2022-09-25T05:33:28;14.00;99.90
16781;DHT22;8507;50.056;8.248;2022-09-25T05:35:53;13.90;99.90
16781;DHT22;8507;50.056;8.248;2022-09-25T05:38:19;14.00;99.90
16781;DHT22;8507;50.056;8.248;2022-09-25T05:40:44;14.00;99.90
16781;DHT22;8507;50.056;8.248;2022-09-25T05:43:10;14.10;99.90
16781;DHT22;8507;50.056;8.248;2022-09-25T05:45:37;14.10;99.90
16781;DHT22;8507;50.056;8.248;2022-09-25T05:48:04;14.20;99.90
16781;DHT22;8507;50.056;8.248;2022-09-25T05:50:30;14.20;99.90
16781;DHT22;8507;50.056;8.248;2022-09-25T05:52:57;14.00;99.90
16781;DHT22;8507;50.056;8.248;2022-09-25T05:55:24;13.90;99.90
16781;DHT22;8507;50.056;8.248;2022-09-25T05:57:49;13.90;99.90
16781;DHT22;8507;50.056;8.248;2022-09-25T06:00:15;13.70;99.90
16781;DHT22;8507;50.056;8.248;2022-09-25T06:02:41;13.60;99.90
16781;DHT22;8507;50.056;8.248;2022-09-25T06:05:08;13.60;99.90
16781;DHT22;8507;50.056;8.248;2022-09-25T06:07:35;13.60;99.90
16781;DHT22;8507;50.056;8.248;2022-09-25T06:10:00;13.70;99.90
16781;DHT22;8507;50.056;8.248;2022-09-25T06:12:29;13.80;99.90
16781;DHT22;8507;50.056;8.248;2022-09-25T06:14:55;14.00;99.90
16781;DHT22;8507;50.056;8.248;2022-09-25T06:17:21;14.00;99.90
16781;DHT22;8507;50.056;8.248;2022-09-25T06:19:46;14.00;99.90
16781;DHT22;8507;50.056;8.248;2022-09-25T06:22:12;14.10;99.90
16781;DHT22;8507;50.056;8.248;2022-09-25T06:24:38;13.90;99.90
16781;DHT22;8507;50.056;8.248;2022-09-25T06:27:05;13.90;99.90
16781;DHT22;8507;50.056;8.248;2022-09-25T06:29:31;13.80;99.90
16781;DHT22;8507;50.056;8.248;2022-09-25T06:31:56;13.80;99.90
16781;DHT22;8507;50.056;8.248;2022-09-25T06:34:22;13.70;99.90
16781;DHT22;8507;50.056;8.248;2022-09-25T06:36:48;13.70;99.90
16781;DHT22;8507;50.056;8.248;2022-09-25T06:39:13;13.60;99.90
16781;DHT22;8507;50.056;8.248;2022-09-25T06:41:39;13.60;99.90
16781;DHT22;8507;50.056;8.248;2022-09-25T06:44:05;13.70;99.90
16781;DHT22;8507;50.056;8.248;2022-09-25T06:46:33;13.90;99.90
16781;DHT22;8507;50.056;8.248;2022-09-25T06:48:59;13.90;99.90
16781;DHT22;8507;50.056;8.248;2022-09-25T06:51:25;14.00;99.90
16781;DHT22;8507;50.056;8.248;2022-09-25T06:53:57;14.00;99.90
16781;DHT22;8507;50.056;8.248;2022-09-25T06:56:22;14.10;99.90
16781;DHT22;8507;50.056;8.248;2022-09-25T06:58:48;14.10;99.90
16781;DHT22;8507;50.056;8.248;2022-09-25T07:01:14;14.30;99.90
16781;DHT22;8507;50.056;8.248;2022-09-25T07:03:39;14.30;99.90
16781;DHT22;8507;50.056;8.248;2022-09-25T07:06:16;14.40;99.90
16781;DHT22;8507;50.056;8.248;2022-09-25T07:08:43;14.30;99.90
16781;DHT22;8507;50.056;8.248;2022-09-25T07:11:15;14.20;99.90
16781;DHT22;8507;50.056;8.248;2022-09-25T07:13:42;14.20;99.90
16781;DHT22;8507;50.056;8.248;2022-09-25T07:16:15;14.20;99.90
16781;DHT22;8507;50.056;8.248;2022-09-25T07:18:41;14.30;99.90
16781;DHT22;8507;50.056;8.248;2022-09-25T07:21:18;14.40;99.90
16781;DHT22;8507;50.056;8.248;2022-09-25T07:23:46;14.20;99.90
16781;DHT22;8507;50.056;8.248;2022-09-25T07:26:21;14.20;99.90
16781;DHT22;8507;50.056;8.248;2022-09-25T07:28:52;14.40;99.90
16781;DHT22;8507;50.056;8.248;2022-09-25T07:31:21;14.50;99.90
16781;DHT22;8507;50.056;8.248;2022-09-25T07:33:47;14.60;99.90
16781;DHT22;8507;50.056;8.248;2022-09-25T07:36:14;14.50;99.90
16781;DHT22;8507;50.056;8.248;2022-09-25T07:38:41;14.50;99.90
16781;DHT22;8507;50.056;8.248;2022-09-25T07:41:09;14.50;99.90
16781;DHT22;8507;50.056;8.248;2022-09-25T07:43:35;14.70;99.90
16781;DHT22;8507;50.056;8.248;2022-09-25T07:46:03;14.50;99.90
16781;DHT22;8507;50.056;8.248;2022-09-25T07:48:29;14.60;99.90
16781;DHT22;8507;50.056;8.248;2022-09-25T07:51:07;14.60;99.90
16781;DHT22;8507;50.056;8.248;2022-09-25T07:53:34;14.50;99.90
16781;DHT22;8507;50.056;8.248;2022-09-25T07:56:00;14.70;99.90
16781;DHT22;8507;50.056;8.248;2022-09-25T07:58:27;14.60;99.90
16781;DHT22;8507;50.056;8.248;2022-09-25T08:00:57;14.60;99.90
16781;DHT22;8507;50.056;8.248;2022-09-25T08:03:22;14.80;99.90
16781;DHT22;8507;50.056;8.248;2022-09-25T08:05:59;14.70;99.90
16781;DHT22;8507;50.056;8.248;2022-09-25T08:08:26;14.50;99.90
16781;DHT22;8507;50.056;8.248;2022-09-25T08:10:53;14.60;99.90
16781;DHT22;8507;50.056;8.248;2022-09-25T08:13:19;14.60;99.90
16781;DHT22;8507;50.056;8.248;2022-09-25T08:15:46;14.40;99.90
16781;DHT22;8507;50.056;8.248;2022-09-25T08:18:13;14.40;99.90
16781;DHT22;8507;50.056;8.248;2022-09-25T08:20:38;14.50;99.90
16781;DHT22;8507;50.056;8.248;2022-09-25T08:23:05;14.50;99.90
16781;DHT22;8507;50.056;8.248;2022-09-25T08:25:31;14.40;99.90
16781;DHT22;8507;50.056;8.248;2022-09-25T08:27:57;14.50;99.90
16781;DHT22;8507;50.056;8.248;2022-09-25T08:30:22;14.50;99.90
16781;DHT22;8507;50.056;8.248;2022-09-25T08:32:49;14.60;99.90
16781;DHT22;8507;50.056;8.248;2022-09-25T08:35:17;14.60;99.90
16781;DHT22;8507;50.056;8.248;2022-09-25T08:37:42;14.60;99.90
16781;DHT22;8507;50.056;8.248;2022-09-25T08:40:18;14.80;99.90
16781;DHT22;8507;50.056;8.248;2022-09-25T08:42:47;14.90;99.90
16781;DHT22;8507;50.056;8.248;2022-09-25T08:45:54;14.90;99.90
16781;DHT22;8507;50.056;8.248;2022-09-25T08:48:36;14.80;99.90
16781;DHT22;8507;50.056;8.248;2022-09-25T08:51:23;14.70;99.90
16781;DHT22;8507;50.056;8.248;2022-09-25T08:53:50;14.60;99.90
16781;DHT22;8507;50.056;8.248;2022-09-25T08:56:15;14.60;99.90
16781;DHT22;8507;50.056;8.248;2022-09-25T08:58:54;14.60;99.90
16781;DHT22;8507;50.056;8.248;2022-09-25T09:01:25;14.70;99.90
16781;DHT22;8507;50.056;8.248;2022-09-25T09:04:02;14.70;99.90
16781;DHT22;8507;50.056;8.248;2022-09-25T09:06:30;14.70;99.90
16781;DHT22;8507;50.056;8.248;2022-09-25T09:09:19;14.60;99.90
16781;DHT22;8507;50.056;8.248;2022-09-25T09:11:53;14.50;99.90
16781;DHT22;8507;50.056;8.248;2022-09-25T09:14:25;14.50;99.90
16781;DHT22;8507;50.056;8.248;2022-09-25T09:17:02;14.40;99.90
16781;DHT22;8507;50.056;8.248;2022-09-25T09:19:29;14.40;99.90
16781;DHT22;8507;50.056;8.248;2022-09-25T09:22:12;14.50;99.90
16781;DHT22;8507;50.056;8.248;2022-09-25T09:24:55;14.40;99.90
16781;DHT22;8507;50.056;8.248;2022-09-25T09:32:43;14.40;99.90
16781;DHT22;8507;50.056;8.248;2022-09-25T09:38:02;14.20;99.90
16781;DHT22;8507;50.056;8.248;2022-09-25T09:51:35;14.00;99.90
16781;DHT22;8507;50.056;8.248;2022-09-25T09:56:51;14.00;99.90
16781;DHT22;8507;50.056;8.248;2022-09-25T09:59:30;14.00;99.90
16781;DHT22;8507;50.056;8.248;2022-09-25T10:02:32;14.00;99.90
16781;DHT22;8507;50.056;8.248;2022-09-25T10:05:01;14.10;99.90
16781;DHT22;8507;50.056;8.248;2022-09-25T10:07:30;14.10;99.90
16781;DHT22;8507;50.056;8.248;2022-09-25T10:09:58;14.20;99.90
16781;DHT22;8507;50.056;8.248;2022-09-25T10:12:30;14.20;99.90
16781;DHT22;8507;50.056;8.248;2022-09-25T10:15:03;14.10;99.90
16781;DHT22;8507;50.056;8.248;2022-09-25T10:17:29;14.40;99.90
16781;DHT22;8507;50.056;8.248;2022-09-25T10:20:11;14.30;99.90
16781;DHT22;8507;50.056;8.248;2022-09-25T10:22:41;14.20;99.90
16781;DHT22;8507;50.056;8.248;2022-09-25T10:25:07;14.00;99.90
16781;DHT22;8507;50.056;8.248;2022-09-25T10:27:40;13.80;99.90
16781;DHT22;8507;50.056;8.248;2022-09-25T10:32:47;13.90;99.90
16781;DHT22;8507;50.056;8.248;2022-09-25T10:35:15;13.80;99.90
16781;DHT22;8507;50.056;8.248;2022-09-25T10:37:42;13.70;99.90
16781;DHT22;8507;50.056;8.248;2022-09-25T10:42:47;13.60;99.90
16781;DHT22;8507;50.056;8.248;2022-09-25T10:45:39;13.60;99.90
16781;DHT22;8507;50.056;8.248;2022-09-25T10:48:25;13.60;99.90
16781;DHT22;8507;50.056;8.248;2022-09-25T10:51:10;13.70;99.90
16781;DHT22;8507;50.056;8.248;2022-09-25T10:53:36;13.70;99.90
16781;DHT22;8507;50.056;8.248;2022-09-25T10:56:08;13.70;99.90
16781;DHT22;8507;50.056;8.248;2022-09-25T10:58:55;13.60;99.90
16781;DHT22;8507;50.056;8.248;2022-09-25T11:01:34;13.60;99.90
16781;DHT22;8507;50.056;8.248;2022-09-25T11:04:04;13.60;99.90
16781;DHT22;8507;50.056;8.248;2022-09-25T11:06:32;13.60;99.90
16781;DHT22;8507;50.056;8.248;2022-09-25T11:09:28;13.60;99.90
16781;DHT22;8507;50.056;8.248;2022-09-25T11:12:25;13.60;99.90
16781;DHT22;8507;50.056;8.248;2022-09-25T11:14:59;13.50;99.90
16781;DHT22;8507;50.056;8.248;2022-09-25T11:23:09;13.60;99.90
16781;DHT22;8507;50.056;8.248;2022-09-25T11:28:38;13.50;99.90
16781;DHT22;8507;50.056;8.248;2022-09-25T11:31:46;13.50;99.90
16781;DHT22;8507;50.056;8.248;2022-09-25T11:37:01;13.60;99.90
16781;DHT22;8507;50.056;8.248;2022-09-25T11:43:09;13.60;99.90
16781;DHT22;8507;50.056;8.248;2022-09-25T11:45:46;13.50;99.90
16781;DHT22;8507;50.056;8.248;2022-09-25T11:48:18;13.50;99.90
16781;DHT22;8507;50.056;8.248;2022-09-25T11:53:36;13.50;99.90
16781;DHT22;8507;50.056;8.248;2022-09-25T11:56:24;13.50;99.90
16781;DHT22;8507;50.056;8.248;2022-09-25T12:01:31;13.30;99.90
16781;DHT22;8507;50.056;8.248;2022-09-25T12:07:09;13.40;99.90
16781;DHT22;8507;50.056;8.248;2022-09-25T12:10:36;13.40;99.90
16781;DHT22;8507;50.056;8.248;2022-09-25T12:13:33;13.40;99.90
16781;DHT22;8507;50.056;8.248;2022-09-25T12:27:38;13.40;99.90
16781;DHT22;8507;50.056;8.248;2022-09-25T12:30:18;13.30;99.90
16781;DHT22;8507;50.056;8.248;2022-09-25T12:35:51;13.50;99.90
16781;DHT22;8507;50.056;8.248;2022-09-25T12:38:26;13.70;99.90
16781;DHT22;8507;50.056;8.248;2022-09-25T12:43:52;13.50;99.90
16781;DHT22;8507;50.056;8.248;2022-09-25T12:46:29;13.60;99.90
16781;DHT22;8507;50.056;8.248;2022-09-25T12:49:04;13.70;99.90
16781;DHT22;8507;50.056;8.248;2022-09-25T12:51:51;13.60;99.90
16781;DHT22;8507;50.056;8.248;2022-09-25T12:57:04;13.30;99.90
16781;DHT22;8507;50.056;8.248;2022-09-25T12:59:41;13.30;99.90
16781;DHT22;8507;50.056;8.248;2022-09-25T13:08:04;13.40;99.90
16781;DHT22;8507;50.056;8.248;2022-09-25T13:10:41;13.30;99.90
16781;DHT22;8507;50.056;8.248;2022-09-25T13:13:16;13.40;99.90
16781;DHT22;8507;50.056;8.248;2022-09-25T13:15:48;13.30;99.90
16781;DHT22;8507;50.056;8.248;2022-09-25T13:18:17;13.30;99.90
16781;DHT22;8507;50.056;8.248;2022-09-25T13:20:48;13.30;99.90
16781;DHT22;8507;50.056;8.248;2022-09-25T13:25:48;13.30;99.90
16781;DHT22;8507;50.056;8.248;2022-09-25T13:28:32;13.30;99.90
16781;DHT22;8507;50.056;8.248;2022-09-25T13:33:36;13.50;99.90
16781;DHT22;8507;50.056;8.248;2022-09-25T13:39:18;13.60;99.90
16781;DHT22;8507;50.056;8.248;2022-09-25T13:47:41;13.80;99.90
16781;DHT22;8507;50.056;8.248;2022-09-25T14:03:37;13.80;99.90
16781;DHT22;8507;50.056;8.248;2022-09-25T14:06:30;13.60;99.90
16781;DHT22;8507;50.056;8.248;2022-09-25T14:08:59;13.60;99.90
16781;DHT22;8507;50.056;8.248;2022-09-25T14:11:32;13.50;99.90
16781;DHT22;8507;50.056;8.248;2022-09-25T14:14:00;13.60;99.90
16781;DHT22;8507;50.056;8.248;2022-09-25T14:16:34;13.70;99.90
16781;DHT22;8507;50.056;8.248;2022-09-25T14:19:03;13.60;99.90
16781;DHT22;8507;50.056;8.248;2022-09-25T14:21:30;13.70;99.90
16781;DHT22;8507;50.056;8.248;2022-09-25T14:24:24;13.60;99.90
16781;DHT22;8507;50.056;8.248;2022-09-25T14:26:53;13.60;99.90
16781;DHT22;8507;50.056;8.248;2022-09-25T14:29:24;13.70;99.90
16781;DHT22;8507;50.056;8.248;2022-09-25T14:40:21;13.80;99.90
16781;DHT22;8507;50.056;8.248;2022-09-25T14:45:45;14.00;99.90
16781;DHT22;8507;50.056;8.248;2022-09-25T14:48:40;14.00;99.90
16781;DHT22;8507;50.056;8.248;2022-09-25T14:51:18;13.90;99.90
16781;DHT22;8507;50.056;8.248;2022-09-25T14:53:50;14.00;99.90
16781;DHT22;8507;50.056;8.248;2022-09-25T14:56:18;14.10;99.90
16781;DHT22;8507;50.056;8.248;2022-09-25T14:58:48;14.10;99.90
16781;DHT22;8507;50.056;8.248;2022-09-25T15:01:34;14.20;99.90
16781;DHT22;8507;50.056;8.248;2022-09-25T15:04:03;14.20;99.90
16781;DHT22;8507;50.056;8.248;2022-09-25T15:06:37;14.30;99.90
16781;DHT22;8507;50.056;8.248;2022-09-25T15:11:53;14.40;99.90
16781;DHT22;8507;50.056;8.248;2022-09-25T15:14:19;14.40;99.90
16781;DHT22;8507;50.056;8.248;2022-09-25T15:16:45;14.50;99.90
16781;DHT22;8507;50.056;8.248;2022-09-25T15:19:40;14.40;99.90
16781;DHT22;8507;50.056;8.248;2022-09-25T15:22:15;14.40;99.90
16781;DHT22;8507;50.056;8.248;2022-09-25T15:24:48;14.50;99.90
16781;DHT22;8507;50.056;8.248;2022-09-25T15:27:16;14.60;99.90
16781;DHT22;8507;50.056;8.248;2022-09-25T15:29:44;14.70;99.90
16781;DHT22;8507;50.056;8.248;2022-09-25T15:32:23;14.90;99.90
16781;DHT22;8507;50.056;8.248;2022-09-25T15:37:40;14.90;99.90
16781;DHT22;8507;50.056;8.248;2022-09-25T15:42:43;14.90;99.90
16781;DHT22;8507;50.056;8.248;2022-09-25T15:45:37;14.90;99.90
16781;DHT22;8507;50.056;8.248;2022-09-25T15:48:32;14.70;99.90
16781;DHT22;8507;50.056;8.248;2022-09-25T15:51:03;14.60;99.90
16781;DHT22;8507;50.056;8.248;2022-09-25T15:53:37;14.60;99.90
16781;DHT22;8507;50.056;8.248;2022-09-25T15:56:16;14.70;99.90
16781;DHT22;8507;50.056;8.248;2022-09-25T15:58:50;14.70;99.90
16781;DHT22;8507;50.056;8.248;2022-09-25T16:01:26;14.80;99.90
16781;DHT22;8507;50.056;8.248;2022-09-25T16:04:29;14.80;99.90
16781;DHT22;8507;50.056;8.248;2022-09-25T16:09:56;14.60;99.90
16781;DHT22;8507;50.056;8.248;2022-09-25T16:12:33;14.60;99.90
16781;DHT22;8507;50.056;8.248;2022-09-25T16:18:39;14.70;99.90
16781;DHT22;8507;50.056;8.248;2022-09-25T16:20:40;14.80;99.90
16781;DHT22;8507;50.056;8.248;2022-09-25T16:23:22;14.80;99.90
16781;DHT22;8507;50.056;8.248;2022-09-25T16:25:51;14.80;99.90
16781;DHT22;8507;50.056;8.248;2022-09-25T16:28:20;14.80;99.90
16781;DHT22;8507;50.056;8.248;2022-09-25T16:30:59;14.90;99.90
16781;DHT22;8507;50.056;8.248;2022-09-25T16:33:29;14.90;99.90
16781;DHT22;8507;50.056;8.248;2022-09-25T16:35:59;14.90;99.90
16781;DHT22;8507;50.056;8.248;2022-09-25T16:38:33;14.80;99.90
16781;DHT22;8507;50.056;8.248;2022-09-25T16:41:17;14.80;99.90
16781;DHT22;8507;50.056;8.248;2022-09-25T16:43:44;14.80;99.90
16781;DHT22;8507;50.056;8.248;2022-09-25T16:46:16;14.80;99.90
16781;DHT22;8507;50.056;8.248;2022-09-25T16:48:44;14.80;99.90
16781;DHT22;8507;50.056;8.248;2022-09-25T16:51:30;14.80;99.90
16781;DHT22;8507;50.056;8.248;2022-09-25T16:53:57;14.80;99.90
16781;DHT22;8507;50.056;8.248;2022-09-25T16:56:25;14.80;99.90
16781;DHT22;8507;50.056;8.248;2022-09-25T16:58:52;14.80;99.90
16781;DHT22;8507;50.056;8.248;2022-09-25T17:01:18;14.90;99.90
16781;DHT22;8507;50.056;8.248;2022-09-25T17:03:44;14.80;99.90
16781;DHT22;8507;50.056;8.248;2022-09-25T17:06:20;14.80;99.90
16781;DHT22;8507;50.056;8.248;2022-09-25T17:08:46;14.80;99.90
16781;DHT22;8507;50.056;8.248;2022-09-25T17:11:13;14.70;99.90
16781;DHT22;8507;50.056;8.248;2022-09-25T17:13:39;14.70;99.90
16781;DHT22;8507;50.056;8.248;2022-09-25T17:16:06;14.70;99.90
16781;DHT22;8507;50.056;8.248;2022-09-25T17:18:32;14.60;99.90
16781;DHT22;8507;50.056;8.248;2022-09-25T17:21:00;14.70;99.90
16781;DHT22;8507;50.056;8.248;2022-09-25T17:23:26;14.70;99.90
16781;DHT22;8507;50.056;8.248;2022-09-25T17:26:16;14.60;99.90
16781;DHT22;8507;50.056;8.248;2022-09-25T17:28:42;14.60;99.90
16781;DHT22;8507;50.056;8.248;2022-09-25T17:31:19;14.50;99.90
16781;DHT22;8507;50.056;8.248;2022-09-25T17:33:46;14.50;99.90
16781;DHT22;8507;50.056;8.248;2022-09-25T17:36:12;14.50;99.90
16781;DHT22;8507;50.056;8.248;2022-09-25T17:38:38;14.40;99.90
16781;DHT22;8507;50.056;8.248;2022-09-25T17:41:24;14.40;99.90
16781;DHT22;8507;50.056;8.248;2022-09-25T17:43:53;14.40;99.90
16781;DHT22;8507;50.056;8.248;2022-09-25T17:46:18;14.50;99.90
16781;DHT22;8507;50.056;8.248;2022-09-25T17:48:45;14.40;99.90
16781;DHT22;8507;50.056;8.248;2022-09-25T17:51:16;14.40;99.90
16781;DHT22;8507;50.056;8.248;2022-09-25T17:53:43;14.50;99.90
16781;DHT22;8507;50.056;8.248;2022-09-25T17:56:09;14.40;99.90
16781;DHT22;8507;50.056;8.248;2022-09-25T17:58:35;14.40;99.90
16781;DHT22;8507;50.056;8.248;2022-09-25T18:01:02;14.40;99.90
16781;DHT22;8507;50.056;8.248;2022-09-25T18:03:30;14.40;99.90
16781;DHT22;8507;50.056;8.248;2022-09-25T18:05:56;14.30;99.90
16781;DHT22;8507;50.056;8.248;2022-09-25T18:08:21;14.30;99.90
16781;DHT22;8507;50.056;8.248;2022-09-25T18:10:52;14.20;99.90
16781;DHT22;8507;50.056;8.248;2022-09-25T18:13:18;14.20;99.90
16781;DHT22;8507;50.056;8.248;2022-09-25T18:15:52;14.10;99.90
16781;DHT22;8507;50.056;8.248;2022-09-25T18:18:18;14.00;99.90
16781;DHT22;8507;50.056;8.248;2022-09-25T18:20:44;14.00;99.90
16781;DHT22;8507;50.056;8.248;2022-09-25T18:23:28;13.90;99.90
16781;DHT22;8507;50.056;8.248;2022-09-25T18:25:59;13.80;99.90
16781;DHT22;8507;50.056;8.248;2022-09-25T18:28:25;13.70;99.90
16781;DHT22;8507;50.056;8.248;2022-09-25T18:30:52;13.70;99.90
16781;DHT22;8507;50.056;8.248;2022-09-25T18:33:17;13.60;99.90
16781;DHT22;8507;50.056;8.248;2022-09-25T18:35:46;13.50;99.90
16781;DHT22;8507;50.056;8.248;2022-09-25T18:38:11;13.50;99.90